NCAR-RAP Real-Time Weather Data

Output produced by METARs form (20 February 2019  17:06 UTC)
found at http://weather.rap.ucar.edu/surface/
 
RJEC 201100Z 31008KT 9999 FEW020 BKN045 M04/M08 Q1012
RJEC 201000Z 30006KT 9999 FEW020 M04/M07 Q1012
RJEC 200900Z 33005KT 9999 FEW030 M03/M06 Q1012
RJEC 200800Z 29004KT 9999 FEW030 M01/M04 Q1011
RJEC 200700Z 31003KT 9999 FEW030 M00/M04 Q1011
RJEC 200600Z 36006KT 9999 FEW030 01/M03 Q1011
RJEC 200500Z 36003KT 320V030 9999 FEW015 SCT030 01/M03 Q1011
RJEC 200400Z 32003KT 9999 FEW015 SCT030 00/M02 Q1012
RJEC 200300Z 35004KT 7000 FEW020 BKN040 00/M02 Q1012
RJEC 200200Z 33002KT 5000 BR FEW009 BKN020 M00/M02 Q1013
RJEC 200134Z 31003KT 3200 BR FEW005 SCT009 BKN020 M01/M02 Q1013 RMK 1ST005 4ST009 6CU020 A2992
RJEC 200124Z 30003KT 2400 BR FEW005 BKN009 BKN020 M01/M02 Q1013 RMK 1ST005 5ST009 6CU020 A2991
RJEC 200100Z 31003KT 1800 -SHSN BR FEW005 SCT007 BKN009 M01/M02 Q1012
RJEC 200050Z 33003KT 1600 -SHSN BR FEW005 SCT007 BKN009 M01/M02 Q1012 RMK 1ST005 4ST007 7ST009 A2991
RJEC 200041Z 32003KT 1600 R34/1800U -SHSN BR FEW003 SCT005 BKN007 M01/M02 Q1012 RMK 1ST003 3ST005 7ST007 A2991
RJEC 200025Z 32002KT 1200 R34/1400VP2000D -SHSN BR FEW003 SCT005 BKN007 M02/M02 Q1012 RMK 2ST003 4ST005 7ST007 A2990
RJEC 200000Z 36004KT 1200 R34/2000U -SHSN BR FEW003 BKN005 BKN007 M02/M02 Q1012
RJEC 192350Z 35005KT 1200 R34/1000V1900N -SHSN BR FEW003 BKN005 BKN007 M02/M02 Q1012 RMK 2ST003 5ST005 7ST007 A2991
RJEC 192339Z 34004KT 1400 R34/1300VP2000D -SHSN BR FEW005 BKN007 M02/M02 Q1012 RMK 2ST005 7ST007 A2991
RJEC 192336Z 34004KT 1500 R34/1300VP2000D -SHSN BR FEW005 BKN007 M02/M03 Q1012 RMK 2ST005 7ST007 A2991
RJEC 192326Z 36004KT 2000 R34/2000N -SHSN BR FEW005 BKN007 BKN009 M02/M02 Q1012 RMK 2ST005 5ST007 7ST009 A2991
RJEC 192310Z 36004KT 2300 R34/2000N -SHSN BR FEW007 BKN009 BKN010 M02/M03 Q1012 RMK 2ST007 5ST009 7ST010 A2990
RJEC 192300Z 01003KT 3000 -SHSN BR FEW007 BKN010 M02/M02 Q1012
RJEC 192232Z VRB02KT 3100 -SHSN BR FEW007 SCT010 BKN040 M02/M03 Q1012 RMK 1ST007 4ST010 7CU040 A2990
RJEC 192214Z 15003KT 3200 -SHSN BR FEW010 BKN040 M03/M03 Q1012 RMK 2ST010 7CU040 A2990
RJEC 192200Z 14003KT 080V160 3000 -SHSN BR FEW010 BKN040 M03/M03 Q1012
RJEC 192140Z 19003KT 3500 -SHSN BR FEW010 BKN040 BKN080 M03/M03 Q1012 RMK 1ST010 5CU040 7AC080 A2990
RJEC 191100Z 17008KT 9999 FEW020 BKN040 BKN050 00/M04 Q1015
RJEC 191000Z 16008KT 9999 FEW020 BKN040 BKN110 00/M04 Q1016
RJEC 190900Z 16007KT 9999 FEW025 SCT045 BKN130 01/M05 Q1016
RJEC 190800Z 18005KT 9999 FEW030 SCT080 BKN/// 02/M06 Q1016
RJEC 190731Z 17005KT 9999 FEW030 SCT080 BKN/// M00/M06 Q1016 RMK 1CU030 3AC080 A3002
RJEC 190700Z 23010KT 200V260 9999 FEW030 SCT080 BKN/// 03/M08 Q1016
RJEC 190600Z 21005KT 160V260 9999 FEW030 SCT130 BKN/// 04/M08 Q1017
RJEC 190500Z 25006KT 220V290 9999 FEW030 BKN150 BKN/// 04/M07 Q1017
RJEC 190400Z 16007KT 130V240 9999 FEW030 SCT140 BKN160 03/M07 Q1018
RJEC 190300Z 16009KT 9999 FEW030 SCT150 BKN170 02/M05 Q1019
RJEC 190200Z 17013KT 9999 FEW030 BKN170 BKN/// 01/M05 Q1020
RJEC 190100Z 17013KT 9999 FEW030 SCT170 BKN/// M01/M06 Q1020
RJEC 190000Z 18011KT 9999 FEW030 BKN/// M03/M08 Q1021
RJEC 182300Z 17010KT 9999 FEW030 BKN/// M06/M10 Q1021
RJEC 182200Z 18011KT 9999 FEW020 BKN/// M07/M11 Q1020
RJEC 182140Z 18012KT 9999 FEW020 BKN/// M08/M12 Q1020 RMK 1CU020 A3014
RJEC 181100Z 15009KT 9999 FEW020 BKN040 M07/M10 Q1021
RJEC 181000Z 20004KT 150V240 9999 FEW020 SCT040 M06/M11 Q1020
RJEC 180900Z 19004KT 9999 FEW020 SCT035 M06/M11 Q1020
RJEC 180800Z 17003KT 140V230 9999 FEW025 SCT040 M07/M11 Q1019
RJEC 180700Z 30005KT 9999 FEW030 SCT045 M04/M10 Q1018
RJEC 180600Z 29010KT 9999 FEW030 SCT050 M02/M09 Q1018